NWWW METAR and TAF weather

Enter ICAO airport designator
Station Type Date Time Source
NWWW METAR 2020/08/12 17:30 UTC NOAA

NWWW 121730Z AUTO 00000KT 9999 FEW049 16/14 Q1015 TEMPO 3500 BR


Station Type Date Time Source
NWWW Decoded METAR 2020/08/12 17:30 UTC NOAA

La Tontouta Nlle-Caledonie , New Caledonia (NWWW) 22-01S 166-13E 14M
Aug 12, 2020 - 01:30 PM EDT / 2020.08.12 1730 UTC
Wind: Calm:0
Visibility: greater than 7 mile(s):0
Sky conditions: mostly clear
Temperature: 60 F (16 C)
Dew Point: 57 F (14 C)
Relative Humidity: 87%
Pressure (altimeter): 29.97 in. Hg (1015 hPa)
ob: NWWW 121730Z AUTO 00000KT 9999 FEW049 16/14 Q1015 TEMPO 3500 BR
cycle: 17

Station Type Date Time Source
NWWW TAF 2020/08/12 18:33 UTC NOAA

TAF NWWW 121700Z 1218/1318 21008KT 9999 FEW030 SCT045

Example: see airport list